createdAt,value
2019-04-05T00:00:40.830Z,5.50
2019-04-05T00:03:07.311Z,5.50
2019-04-05T00:05:33.796Z,5.60
2019-04-05T00:08:00.408Z,5.50
2019-04-05T00:10:26.798Z,5.50
2019-04-05T00:12:53.232Z,5.50
2019-04-05T00:15:19.679Z,5.50
2019-04-05T00:17:46.148Z,5.50
2019-04-05T00:20:14.149Z,5.50
2019-04-05T00:22:40.770Z,5.60
2019-04-05T00:25:07.256Z,5.60
2019-04-05T00:27:33.820Z,5.60
2019-04-05T00:30:00.295Z,5.70
2019-04-05T00:32:26.675Z,5.70
2019-04-05T00:34:53.025Z,5.70
2019-04-05T00:37:19.497Z,5.70
2019-04-05T00:39:45.874Z,5.70
2019-04-05T00:42:12.340Z,5.70
2019-04-05T00:44:38.756Z,5.70
2019-04-05T00:47:05.330Z,5.70
2019-04-05T00:49:31.902Z,5.60
2019-04-05T00:51:58.489Z,5.60
2019-04-05T00:54:24.931Z,5.60
2019-04-05T00:56:51.420Z,5.60
2019-04-05T00:59:17.826Z,5.60
2019-04-05T01:01:44.475Z,5.50
2019-04-05T01:04:11.069Z,5.50
2019-04-05T01:06:37.572Z,5.50
2019-04-05T01:09:05.567Z,5.50
2019-04-05T01:11:34.199Z,5.50
2019-04-05T01:14:00.666Z,5.40
2019-04-05T01:16:27.254Z,5.40
2019-04-05T01:18:53.747Z,5.40
2019-04-05T01:21:23.646Z,5.40
2019-04-05T01:23:52.450Z,5.40
2019-04-05T01:26:20.278Z,5.30
2019-04-05T01:28:46.887Z,5.30
2019-04-05T01:31:13.460Z,5.30
2019-04-05T01:33:39.925Z,5.30
2019-04-05T01:36:06.503Z,5.30
2019-04-05T01:38:33.106Z,5.30
2019-04-05T01:40:59.690Z,5.20
2019-04-05T01:43:26.462Z,5.20
2019-04-05T01:45:54.269Z,5.20
2019-04-05T01:48:20.937Z,5.20
2019-04-05T01:50:47.412Z,5.10
2019-04-05T01:53:14.009Z,5.10
2019-04-05T01:55:40.553Z,5.10
2019-04-05T01:58:07.139Z,5.10
2019-04-05T02:00:33.705Z,5.10
2019-04-05T02:03:00.221Z,5.10
2019-04-05T02:05:26.679Z,5.10
2019-04-05T02:07:53.333Z,5.00
2019-04-05T02:10:19.813Z,5.00
2019-04-05T02:12:46.270Z,4.90
2019-04-05T02:15:24.298Z,4.90
2019-04-05T02:17:50.899Z,4.90
2019-04-05T02:20:17.499Z,4.90
2019-04-05T02:22:43.873Z,4.90
2019-04-05T02:25:10.393Z,4.90
2019-04-05T02:27:36.867Z,4.90
2019-04-05T02:30:06.616Z,4.80
2019-04-05T02:32:33.075Z,4.80
2019-04-05T02:34:59.571Z,4.70
2019-04-05T02:37:26.079Z,4.70
2019-04-05T02:39:52.566Z,4.70
2019-04-05T02:42:19.685Z,4.70
2019-04-05T02:44:47.559Z,4.70
2019-04-05T02:47:14.588Z,4.60
2019-04-05T02:49:43.062Z,4.50
2019-04-05T02:52:10.141Z,4.50
2019-04-05T02:54:36.807Z,4.30
2019-04-05T02:57:03.418Z,4.20
2019-04-05T02:59:31.991Z,4.10
2019-04-05T03:01:58.514Z,4.00
2019-04-05T03:04:25.074Z,3.90
2019-04-05T03:06:51.793Z,3.80
2019-04-05T03:09:18.948Z,3.80
2019-04-05T03:11:46.289Z,3.70
2019-04-05T03:14:13.166Z,3.70
2019-04-05T03:16:43.259Z,3.60
2019-04-05T03:19:13.303Z,3.60
2019-04-05T03:21:43.392Z,3.50
2019-04-05T03:24:13.490Z,3.50
2019-04-05T03:26:43.525Z,3.40
2019-04-05T03:29:10.096Z,3.40
2019-04-05T03:31:37.521Z,3.40
2019-04-05T03:34:04.176Z,3.40
2019-04-05T03:36:31.113Z,3.30
2019-04-05T03:38:57.952Z,3.30
2019-04-05T03:41:24.430Z,3.20
2019-04-05T03:43:51.230Z,3.20
2019-04-05T03:46:18.222Z,3.20
2019-04-05T03:48:45.275Z,3.10
2019-04-05T03:51:11.958Z,3.00
2019-04-05T03:53:38.418Z,3.00
2019-04-05T03:56:04.907Z,2.90
2019-04-05T03:58:31.616Z,2.90
2019-04-05T04:00:58.219Z,2.80
2019-04-05T04:03:24.966Z,2.80
2019-04-05T04:05:51.786Z,2.70
2019-04-05T04:08:18.342Z,2.60
2019-04-05T04:10:46.426Z,2.60
2019-04-05T04:13:13.014Z,2.50
2019-04-05T04:15:39.476Z,2.60
2019-04-05T04:18:06.142Z,2.60
2019-04-05T04:20:42.027Z,2.60
2019-04-05T04:23:09.179Z,2.60
2019-04-05T04:25:37.670Z,2.70
2019-04-05T04:28:05.944Z,2.70
2019-04-05T04:30:34.437Z,2.80
2019-04-05T04:33:01.108Z,2.80
2019-04-05T04:35:27.877Z,2.90
2019-04-05T04:37:54.447Z,2.90
2019-04-05T04:40:21.044Z,2.90
2019-04-05T04:42:48.114Z,3.00
2019-04-05T04:45:14.905Z,2.90
2019-04-05T04:47:41.567Z,2.90
2019-04-05T04:50:09.739Z,2.80
2019-04-05T04:52:36.544Z,2.90
2019-04-05T04:55:05.504Z,2.80
2019-04-05T04:57:31.953Z,2.90
2019-04-05T04:59:58.757Z,3.00
2019-04-05T05:02:25.427Z,3.10
2019-04-05T05:04:52.222Z,3.10
2019-04-05T05:07:18.712Z,3.20
2019-04-05T05:09:45.587Z,3.30
2019-04-05T05:12:12.077Z,3.40
2019-04-05T05:14:38.747Z,3.40
2019-04-05T05:17:05.625Z,3.40
2019-04-05T05:19:32.382Z,3.40
2019-04-05T05:21:58.972Z,3.40
2019-04-05T05:24:25.496Z,3.50
2019-04-05T05:26:52.138Z,3.60
2019-04-05T05:29:18.619Z,3.60
2019-04-05T05:31:45.338Z,3.60
2019-04-05T05:34:12.041Z,3.60
2019-04-05T05:36:38.522Z,3.60
2019-04-05T05:39:06.070Z,3.60
2019-04-05T05:41:32.577Z,3.60
2019-04-05T05:43:59.044Z,3.70
2019-04-05T05:46:25.578Z,3.70
2019-04-05T05:48:51.945Z,3.80
2019-04-05T05:51:18.508Z,3.90
2019-04-05T05:53:44.965Z,3.90
2019-04-05T05:56:11.457Z,4.10
2019-04-05T05:58:37.758Z,4.20
2019-04-05T06:01:04.216Z,4.20
2019-04-05T06:03:30.585Z,4.20
2019-04-05T06:06:04.229Z,4.30
2019-04-05T06:08:25.113Z,4.40
2019-04-05T06:10:51.589Z,4.60
2019-04-05T06:13:18.040Z,4.60
2019-04-05T06:15:44.663Z,4.70
2019-04-05T06:18:12.710Z,4.90
2019-04-05T06:20:39.771Z,5.40
2019-04-05T06:23:06.507Z,6.30
2019-04-05T06:25:33.056Z,7.00
2019-04-05T06:27:59.896Z,7.30
2019-04-05T06:30:28.801Z,7.60
2019-04-05T06:32:54.889Z,7.60
2019-04-05T06:35:21.394Z,7.20
2019-04-05T06:37:47.788Z,7.50
2019-04-05T06:40:14.300Z,8.00
2019-04-05T06:42:40.812Z,8.00
2019-04-05T06:45:07.419Z,8.10
2019-04-05T06:47:33.802Z,8.20
2019-04-05T06:50:00.295Z,8.20
2019-04-05T06:52:26.842Z,8.20
2019-04-05T06:54:53.433Z,8.60
2019-04-05T06:57:20.051Z,8.50
2019-04-05T06:59:46.553Z,8.70
2019-04-05T07:02:13.192Z,9.20
2019-04-05T07:04:43.998Z,9.50
2019-04-05T07:07:10.714Z,9.40
2019-04-05T07:09:37.197Z,9.30
2019-04-05T07:12:11.376Z,9.50
2019-04-05T07:14:37.822Z,10.00
2019-04-05T07:17:04.572Z,10.30
2019-04-05T07:19:31.106Z,10.20
2019-04-05T07:21:58.246Z,10.50
2019-04-05T07:24:24.904Z,10.80
2019-04-05T07:26:51.419Z,10.40
2019-04-05T07:29:19.705Z,11.20
2019-04-05T07:31:46.092Z,11.00
2019-04-05T07:34:12.445Z,11.00
2019-04-05T07:36:38.802Z,10.90
2019-04-05T07:39:05.835Z,10.80
2019-04-05T07:41:32.396Z,11.70
2019-04-05T07:43:58.970Z,11.90
2019-04-05T07:46:27.438Z,11.60
2019-04-05T07:48:53.834Z,12.00
2019-04-05T07:51:22.620Z,12.30
2019-04-05T07:53:48.653Z,11.90
2019-04-05T07:56:19.168Z,11.30
2019-04-05T07:58:44.926Z,11.00
2019-04-05T08:01:12.617Z,10.80
2019-04-05T08:03:39.211Z,10.80
2019-04-05T08:06:05.809Z,11.20
2019-04-05T08:08:44.753Z,11.60
2019-04-05T08:11:11.297Z,11.60
2019-04-05T08:13:40.014Z,11.60
2019-04-05T08:16:06.399Z,11.00
2019-04-05T08:18:37.643Z,10.70
2019-04-05T08:21:03.729Z,10.40
2019-04-05T08:23:30.134Z,10.70
2019-04-05T08:25:56.525Z,10.80
2019-04-05T08:28:23.079Z,10.60
2019-04-05T08:30:49.633Z,10.90
2019-04-05T08:33:17.449Z,11.40
2019-04-05T08:35:43.890Z,12.00
2019-04-05T08:38:10.465Z,11.90
2019-04-05T08:40:37.068Z,11.50
2019-04-05T08:43:03.572Z,11.30
2019-04-05T08:45:30.034Z,11.50
2019-04-05T08:47:56.691Z,12.00
2019-04-05T08:50:23.490Z,12.60
2019-04-05T08:52:50.221Z,13.00
2019-04-05T08:55:16.858Z,12.20
2019-04-05T08:57:43.626Z,12.60
2019-04-05T09:00:10.362Z,12.00
2019-04-05T09:02:36.907Z,11.70
2019-04-05T09:05:05.395Z,11.80
2019-04-05T09:07:31.893Z,12.00
2019-04-05T09:09:58.280Z,12.20
2019-04-05T09:12:24.769Z,12.50
2019-04-05T09:14:51.443Z,13.00
2019-04-05T09:17:17.810Z,13.20
2019-04-05T09:19:44.262Z,12.90
2019-04-05T09:22:10.753Z,12.00
2019-04-05T09:24:37.507Z,13.10
2019-04-05T09:27:04.193Z,12.70
2019-04-05T09:29:31.551Z,11.90
2019-04-05T09:32:01.249Z,11.50
2019-04-05T09:34:27.901Z,11.40
2019-04-05T09:36:54.486Z,11.80
2019-04-05T09:39:21.057Z,11.90
2019-04-05T09:41:47.549Z,11.40
2019-04-05T09:44:13.921Z,11.20
2019-04-05T09:46:46.934Z,10.70
2019-04-05T09:49:08.662Z,10.70
2019-04-05T09:51:35.170Z,10.80
2019-04-05T09:54:01.597Z,10.70
2019-04-05T09:56:28.305Z,10.80
2019-04-05T09:58:55.050Z,11.10
2019-04-05T10:01:21.737Z,10.70
2019-04-05T10:03:48.321Z,10.50
2019-04-05T10:06:14.944Z,10.30
2019-04-05T10:08:41.413Z,10.60
2019-04-05T10:11:08.043Z,10.40
2019-04-05T10:13:34.747Z,10.40
2019-04-05T10:16:01.203Z,10.50
2019-04-05T10:18:27.466Z,10.40
2019-04-05T10:20:53.816Z,10.70
2019-04-05T10:23:20.197Z,10.50
2019-04-05T10:25:46.745Z,10.70
2019-04-05T10:28:13.268Z,10.70
2019-04-05T10:30:39.822Z,10.80
2019-04-05T10:33:11.010Z,11.10
2019-04-05T10:35:37.359Z,11.00
2019-04-05T10:38:03.994Z,11.20
2019-04-05T10:40:30.388Z,11.10
2019-04-05T10:42:57.027Z,11.00
2019-04-05T10:45:23.513Z,10.60
2019-04-05T10:47:49.888Z,10.40
2019-04-05T10:50:16.617Z,10.30
2019-04-05T10:52:43.085Z,10.00
2019-04-05T10:55:09.920Z,10.30
2019-04-05T10:57:36.342Z,10.40
2019-04-05T11:00:05.909Z,10.40
2019-04-05T11:02:32.303Z,9.90
2019-04-05T11:04:58.597Z,9.60
2019-04-05T11:07:25.120Z,10.00
2019-04-05T11:09:53.468Z,10.10
2019-04-05T11:12:22.838Z,10.10
2019-04-05T11:14:49.459Z,10.40
2019-04-05T11:17:15.962Z,10.10
2019-04-05T11:19:42.439Z,10.20
2019-04-05T11:22:08.786Z,10.30
2019-04-05T11:24:44.963Z,10.00
2019-04-05T11:27:11.422Z,10.30
2019-04-05T11:29:38.416Z,10.40
2019-04-05T11:32:12.236Z,10.30
2019-04-05T11:34:38.741Z,10.20
2019-04-05T11:37:05.535Z,10.30
2019-04-05T11:39:32.099Z,10.30
2019-04-05T11:41:59.282Z,10.50
2019-04-05T11:44:26.803Z,10.40
2019-04-05T11:46:53.794Z,10.30
2019-04-05T11:49:21.901Z,10.40
2019-04-05T11:51:48.397Z,10.30
2019-04-05T11:54:14.984Z,10.50
2019-04-05T11:56:41.562Z,10.20
2019-04-05T11:59:09.914Z,9.90
2019-04-05T12:01:38.384Z,10.10
2019-04-05T12:04:08.792Z,10.60
2019-04-05T12:06:35.355Z,10.50
2019-04-05T12:09:03.741Z,10.90
2019-04-05T12:11:30.260Z,10.70
2019-04-05T12:13:56.847Z,10.50
2019-04-05T12:16:23.433Z,10.30
2019-04-05T12:18:49.933Z,10.10
2019-04-05T12:21:16.479Z,10.10
2019-04-05T12:23:42.791Z,10.20
2019-04-05T12:26:09.219Z,10.40
2019-04-05T12:28:35.712Z,10.50
2019-04-05T12:31:02.362Z,10.70
2019-04-05T12:33:28.971Z,10.90
2019-04-05T12:35:56.696Z,10.70
2019-04-05T12:38:33.828Z,11.10
2019-04-05T12:41:01.584Z,11.70
2019-04-05T12:43:27.925Z,11.60
2019-04-05T12:45:54.447Z,11.70
2019-04-05T12:48:21.716Z,12.60
2019-04-05T12:51:00.334Z,12.80
2019-04-05T12:53:16.773Z,12.70
2019-04-05T12:55:43.196Z,12.90
2019-04-05T12:58:10.064Z,12.80
2019-04-05T13:00:38.835Z,13.10
2019-04-05T13:03:04.612Z,12.90
2019-04-05T13:05:31.213Z,13.20
2019-04-05T13:07:58.656Z,12.90
2019-04-05T13:10:26.321Z,13.30
2019-04-05T13:12:56.809Z,13.40
2019-04-05T13:15:21.457Z,13.10
2019-04-05T13:17:48.054Z,13.00
2019-04-05T13:20:14.991Z,13.10
2019-04-05T13:22:41.483Z,12.50
2019-04-05T13:25:10.723Z,12.50
2019-04-05T13:27:45.613Z,11.80
2019-04-05T13:30:18.576Z,11.30
2019-04-05T13:32:46.781Z,11.20
2019-04-05T13:35:16.687Z,11.40
2019-04-05T13:37:42.424Z,11.30
2019-04-05T13:40:09.108Z,11.40
2019-04-05T13:42:35.705Z,11.30
2019-04-05T13:45:06.353Z,11.30
2019-04-05T13:47:33.243Z,11.50
2019-04-05T13:50:00.644Z,11.70
2019-04-05T13:52:27.109Z,12.00
2019-04-05T13:54:53.691Z,11.70
2019-04-05T13:57:22.011Z,11.60
2019-04-05T13:59:48.602Z,11.40
2019-04-05T14:02:15.316Z,10.40
2019-04-05T14:04:41.827Z,10.60
2019-04-05T14:07:08.370Z,10.30
2019-04-05T14:09:34.953Z,10.10
2019-04-05T14:12:01.583Z,9.70
2019-04-05T14:14:29.950Z,9.10
2019-04-05T14:16:56.471Z,8.90
2019-04-05T14:19:24.667Z,9.00
2019-04-05T14:21:53.497Z,9.20
2019-04-05T14:24:19.238Z,9.50
2019-04-05T14:26:45.701Z,9.60
2019-04-05T14:29:12.104Z,9.60
2019-04-05T14:31:38.583Z,9.60
2019-04-05T14:34:05.061Z,9.50
2019-04-05T14:36:31.536Z,9.20
2019-04-05T14:38:58.058Z,9.00
2019-04-05T14:41:24.685Z,8.80
2019-04-05T14:43:51.329Z,9.00
2019-04-05T14:46:17.929Z,8.80
2019-04-05T14:48:44.455Z,8.70
2019-04-05T14:51:10.934Z,8.50
2019-04-05T14:53:37.681Z,8.60
2019-04-05T14:56:04.338Z,8.70
2019-04-05T14:58:30.594Z,8.70
2019-04-05T15:00:56.946Z,8.70
2019-04-05T15:03:23.559Z,8.60
2019-04-05T15:05:50.043Z,8.40
2019-04-05T15:08:20.254Z,8.40
2019-04-05T15:10:44.614Z,8.40
2019-04-05T15:13:11.186Z,8.20
2019-04-05T15:15:37.669Z,7.90
2019-04-05T15:18:04.141Z,8.00
2019-04-05T15:20:30.592Z,8.20
2019-04-05T15:22:56.999Z,8.10
2019-04-05T15:25:23.461Z,7.90
2019-04-05T15:27:53.840Z,7.70
2019-04-05T15:30:18.097Z,7.40
2019-04-05T15:32:44.586Z,7.50
2019-04-05T15:35:11.043Z,7.60
2019-04-05T15:37:37.973Z,7.60
2019-04-05T15:40:06.493Z,7.60
2019-04-05T15:42:32.985Z,7.50
2019-04-05T15:44:59.753Z,7.40
2019-04-05T15:47:26.314Z,7.40
2019-04-05T15:49:52.915Z,7.20
2019-04-05T15:52:19.440Z,7.20
2019-04-05T15:54:46.139Z,7.10
2019-04-05T15:57:12.600Z,7.10
2019-04-05T15:59:39.556Z,7.20
2019-04-05T16:02:06.027Z,7.20
2019-04-05T16:04:32.491Z,7.30
2019-04-05T16:06:59.091Z,7.30
2019-04-05T16:09:25.696Z,7.20
2019-04-05T16:11:52.144Z,7.30
2019-04-05T16:14:18.550Z,7.20
2019-04-05T16:16:44.909Z,7.00
2019-04-05T16:19:11.476Z,6.70
2019-04-05T16:21:37.729Z,6.60
2019-04-05T16:24:04.305Z,6.40
2019-04-05T16:26:30.833Z,6.50
2019-04-05T16:28:57.415Z,6.50
2019-04-05T16:31:23.872Z,6.50
2019-04-05T16:33:50.364Z,6.60
2019-04-05T16:36:16.993Z,6.60
2019-04-05T16:38:43.427Z,6.50
2019-04-05T16:41:09.910Z,6.40
2019-04-05T16:43:36.530Z,6.30
2019-04-05T16:46:03.078Z,6.40
2019-04-05T16:48:29.728Z,6.40
2019-04-05T16:50:56.177Z,6.40
2019-04-05T16:53:22.749Z,6.30
2019-04-05T16:55:49.308Z,6.20
2019-04-05T16:58:15.885Z,6.30
2019-04-05T17:00:42.303Z,6.20
2019-04-05T17:03:08.636Z,6.20
2019-04-05T17:05:34.982Z,6.20
2019-04-05T17:08:01.415Z,6.10
2019-04-05T17:10:27.912Z,5.90
2019-04-05T17:12:54.503Z,5.80
2019-04-05T17:15:20.962Z,5.70
2019-04-05T17:17:47.630Z,5.70
2019-04-05T17:20:14.107Z,5.50
2019-04-05T17:22:40.870Z,5.50
2019-04-05T17:25:07.429Z,5.40
2019-04-05T17:27:33.817Z,5.30
2019-04-05T17:30:00.210Z,5.20
2019-04-05T17:32:26.477Z,5.10
2019-04-05T17:34:52.934Z,5.10
2019-04-05T17:37:19.302Z,5.10
2019-04-05T17:39:46.005Z,4.90
2019-04-05T17:42:12.530Z,4.80
2019-04-05T17:44:39.024Z,4.70
2019-04-05T17:47:05.285Z,4.60
2019-04-05T17:49:31.704Z,4.60
2019-04-05T17:51:58.163Z,4.60
2019-04-05T17:54:24.654Z,4.50
2019-04-05T17:56:51.111Z,4.50
2019-04-05T17:59:17.638Z,4.50
2019-04-05T18:01:44.116Z,4.40
2019-04-05T18:04:10.356Z,4.30
2019-04-05T18:06:36.922Z,4.30
2019-04-05T18:09:05.217Z,4.30
2019-04-05T18:11:31.675Z,4.30
2019-04-05T18:13:58.133Z,4.30
2019-04-05T18:16:24.621Z,4.30
2019-04-05T18:18:51.030Z,4.30
2019-04-05T18:21:17.590Z,4.30
2019-04-05T18:23:43.964Z,4.20
2019-04-05T18:26:10.312Z,4.20
2019-04-05T18:28:36.645Z,4.10
2019-04-05T18:31:03.119Z,4.20
2019-04-05T18:33:29.482Z,4.10
2019-04-05T18:35:56.001Z,4.10
2019-04-05T18:38:22.420Z,4.10
2019-04-05T18:40:49.006Z,4.10
2019-04-05T18:43:15.466Z,4.10
2019-04-05T18:45:41.953Z,4.00
2019-04-05T18:48:08.477Z,4.00
2019-04-05T18:50:34.938Z,4.00
2019-04-05T18:53:01.396Z,4.00
2019-04-05T18:55:27.751Z,4.00
2019-04-05T18:57:54.200Z,4.00
2019-04-05T19:00:20.699Z,4.00
2019-04-05T19:02:47.061Z,3.90
2019-04-05T19:05:13.849Z,3.90
2019-04-05T19:07:40.583Z,3.90
2019-04-05T19:10:07.302Z,3.90
2019-04-05T19:12:33.848Z,3.90
2019-04-05T19:15:00.325Z,3.80
2019-04-05T19:17:26.601Z,3.80
2019-04-05T19:19:53.081Z,3.80
2019-04-05T19:22:19.540Z,3.80
2019-04-05T19:24:45.921Z,3.80
2019-04-05T19:27:12.204Z,3.80
2019-04-05T19:29:38.798Z,3.70
2019-04-05T19:49:22.595Z,3.70
2019-04-05T19:51:48.861Z,3.70
2019-04-05T19:54:15.254Z,3.60
2019-04-05T19:56:41.560Z,3.60
2019-04-05T19:59:08.066Z,3.60
2019-04-05T20:01:34.570Z,3.60
2019-04-05T20:04:00.964Z,3.60
2019-04-05T20:06:27.471Z,3.60
2019-04-05T20:08:54.040Z,3.70
2019-04-05T20:11:20.519Z,3.60
2019-04-05T20:13:46.898Z,3.60
2019-04-05T20:16:13.507Z,3.60
2019-04-05T20:18:39.998Z,3.60
2019-04-05T20:21:06.473Z,3.60
2019-04-05T20:23:32.905Z,3.50
2019-04-05T20:25:59.477Z,3.60
2019-04-05T20:28:25.999Z,3.60
2019-04-05T20:30:53.421Z,3.50
2019-04-05T20:33:19.794Z,3.50
2019-04-05T20:35:46.084Z,3.60
2019-04-05T20:38:12.438Z,3.50
2019-04-05T20:40:38.778Z,3.60
2019-04-05T20:43:05.266Z,3.50
2019-04-05T20:45:31.862Z,3.50
2019-04-05T20:47:58.353Z,3.50
2019-04-05T20:50:24.941Z,3.50
2019-04-05T20:52:51.361Z,3.50
2019-04-05T20:55:17.846Z,3.50
2019-04-05T20:57:44.205Z,3.50
2019-04-05T21:00:12.307Z,3.50
2019-04-05T21:02:38.596Z,3.50
2019-04-05T21:05:05.473Z,3.50
2019-04-05T21:07:31.878Z,3.50
2019-04-05T21:09:58.263Z,3.60
2019-04-05T21:12:24.894Z,3.60
2019-04-05T21:14:51.210Z,3.60
2019-04-05T21:17:17.713Z,3.60
2019-04-05T21:19:44.083Z,3.50
2019-04-05T21:22:10.369Z,3.60
2019-04-05T21:24:36.725Z,3.50
2019-04-05T21:27:03.202Z,3.50
2019-04-05T21:29:29.710Z,3.50
2019-04-05T21:31:56.188Z,3.50
2019-04-05T21:34:22.654Z,3.50
2019-04-05T21:36:49.137Z,3.50
2019-04-05T21:39:15.598Z,3.50
2019-04-05T21:41:42.060Z,3.40
2019-04-05T21:44:08.565Z,3.40
2019-04-05T21:46:35.065Z,3.40
2019-04-05T21:49:01.465Z,3.50
2019-04-05T21:51:27.932Z,3.50
2019-04-05T21:53:54.427Z,3.50
2019-04-05T21:56:20.810Z,3.50
2019-04-05T21:58:47.248Z,3.50
2019-04-05T22:01:13.806Z,3.40
2019-04-05T22:03:40.420Z,3.40
2019-04-05T22:06:06.914Z,3.40
2019-04-05T22:08:33.482Z,3.40
2019-04-05T22:11:00.035Z,3.40
2019-04-05T22:13:26.501Z,3.40
2019-04-05T22:15:53.098Z,3.40
2019-04-05T22:18:19.666Z,3.40
2019-04-05T22:20:46.149Z,3.40
2019-04-05T22:23:12.410Z,3.40
2019-04-05T22:25:38.819Z,3.40
2019-04-05T22:28:05.194Z,3.40
2019-04-05T22:30:31.582Z,3.40
2019-04-05T22:32:57.989Z,3.40
2019-04-05T22:35:24.376Z,3.40
2019-04-05T22:37:50.812Z,3.40
2019-04-05T22:40:17.215Z,3.40
2019-04-05T22:42:43.656Z,3.40
2019-04-05T22:45:10.299Z,3.40
2019-04-05T22:47:36.737Z,3.40
2019-04-05T22:50:06.546Z,3.40
2019-04-05T22:52:32.986Z,3.40
2019-04-05T22:55:10.052Z,3.40
2019-04-05T22:57:27.772Z,3.40
2019-04-05T22:59:54.282Z,3.40
2019-04-05T23:02:20.649Z,3.40
2019-04-05T23:04:46.998Z,3.40
2019-04-05T23:07:13.414Z,3.40
2019-04-05T23:09:39.669Z,3.40
2019-04-05T23:12:06.343Z,3.40
2019-04-05T23:14:32.829Z,3.40
2019-04-05T23:16:59.626Z,3.40
2019-04-05T23:19:26.165Z,3.50
2019-04-05T23:21:52.556Z,3.50
2019-04-05T23:24:19.060Z,3.40
2019-04-05T23:26:45.450Z,3.40
2019-04-05T23:29:11.788Z,3.50
2019-04-05T23:31:38.181Z,3.50
2019-04-05T23:34:04.677Z,3.50
2019-04-05T23:36:31.054Z,3.50
2019-04-05T23:38:57.529Z,3.50
2019-04-05T23:41:24.161Z,3.50
2019-04-05T23:43:50.421Z,3.50
2019-04-05T23:46:16.886Z,3.50
2019-04-05T23:48:43.279Z,3.50
2019-04-05T23:51:09.635Z,3.50
2019-04-05T23:53:35.921Z,3.50
2019-04-05T23:56:02.541Z,3.50
2019-04-05T23:58:28.918Z,3.50
